sensor_id;sensor_type;location;lat;lon;timestamp;pressure;altitude;pressure_sealevel;temperature;humidity
66479;BME280;53294;47.912;13.526;2023-04-02T00:08:56;95388.19;;;7.77;70.28
66479;BME280;53294;47.912;13.526;2023-04-02T00:11:36;95388.38;;;7.52;71.29
66479;BME280;53294;47.912;13.526;2023-04-02T00:14:12;95393.13;;;7.42;71.37
66479;BME280;53294;47.912;13.526;2023-04-02T00:16:40;95394.88;;;7.32;72.09
66479;BME280;53294;47.912;13.526;2023-04-02T00:19:13;95392.53;;;7.59;71.43
66479;BME280;53294;47.912;13.526;2023-04-02T00:21:44;95389.59;;;7.88;70.55
66479;BME280;53294;47.912;13.526;2023-04-02T00:24:17;95390.78;;;8.09;69.71
66479;BME280;53294;47.912;13.526;2023-04-02T00:26:49;95394.34;;;8.19;69.23
66479;BME280;53294;47.912;13.526;2023-04-02T00:29:17;95401.50;;;8.23;69.02
66479;BME280;53294;47.912;13.526;2023-04-02T00:31:49;95393.75;;;8.22;69.05
66479;BME280;53294;47.912;13.526;2023-04-02T00:34:21;95394.34;;;8.19;69.34
66479;BME280;53294;47.912;13.526;2023-04-02T00:36:49;95390.50;;;8.11;69.32
66479;BME280;53294;47.912;13.526;2023-04-02T00:39:20;95395.56;;;8.13;69.18
66479;BME280;53294;47.912;13.526;2023-04-02T00:41:48;95393.25;;;8.20;69.23
66479;BME280;53294;47.912;13.526;2023-04-02T00:44:20;95387.81;;;8.25;68.57
66479;BME280;53294;47.912;13.526;2023-04-02T00:46:48;95398.72;;;7.87;69.25
66479;BME280;53294;47.912;13.526;2023-04-02T00:51:57;95400.47;;;7.78;70.06
66479;BME280;53294;47.912;13.526;2023-04-02T00:54:30;95401.09;;;8.16;69.02
66479;BME280;53294;47.912;13.526;2023-04-02T00:56:57;95403.94;;;8.20;69.39
66479;BME280;53294;47.912;13.526;2023-04-02T00:59:34;95408.81;;;8.18;69.68
66479;BME280;53294;47.912;13.526;2023-04-02T01:13:26;95405.66;;;7.88;70.60
66479;BME280;53294;47.912;13.526;2023-04-02T01:21:40;95405.13;;;7.25;72.69
66479;BME280;53294;47.912;13.526;2023-04-02T01:24:12;95409.22;;;7.04;74.54
66479;BME280;53294;47.912;13.526;2023-04-02T01:29:15;95404.03;;;6.93;75.50
66479;BME280;53294;47.912;13.526;2023-04-02T01:31:44;95404.94;;;6.70;76.62
66479;BME280;53294;47.912;13.526;2023-04-02T01:34:15;95406.94;;;6.78;76.33
66479;BME280;53294;47.912;13.526;2023-04-02T01:39:56;95412.19;;;6.83;76.18
66479;BME280;53294;47.912;13.526;2023-04-02T01:45:10;95414.72;;;6.93;75.50
66479;BME280;53294;47.912;13.526;2023-04-02T01:47:38;95415.22;;;6.76;76.58
66479;BME280;53294;47.912;13.526;2023-04-02T01:50:28;95420.78;;;6.80;76.47
66479;BME280;53294;47.912;13.526;2023-04-02T01:52:59;95415.31;;;6.90;75.54
66479;BME280;53294;47.912;13.526;2023-04-02T01:58:06;95421.09;;;7.11;74.25
66479;BME280;53294;47.912;13.526;2023-04-02T02:00:35;95428.56;;;6.95;74.86
66479;BME280;53294;47.912;13.526;2023-04-02T02:03:06;95422.75;;;7.26;73.61
66479;BME280;53294;47.912;13.526;2023-04-02T02:05:36;95422.41;;;7.47;73.00
66479;BME280;53294;47.912;13.526;2023-04-02T02:08:03;95424.34;;;7.74;71.91
66479;BME280;53294;47.912;13.526;2023-04-02T02:10:37;95426.63;;;7.81;71.89
66479;BME280;53294;47.912;13.526;2023-04-02T02:13:04;95422.38;;;7.94;71.70
66479;BME280;53294;47.912;13.526;2023-04-02T02:15:32;95429.31;;;7.95;71.06
66479;BME280;53294;47.912;13.526;2023-04-02T02:18:03;95426.03;;;7.70;72.18
66479;BME280;53294;47.912;13.526;2023-04-02T02:20:31;95424.41;;;7.55;72.53
66479;BME280;53294;47.912;13.526;2023-04-02T02:23:00;95434.97;;;7.93;71.37
66479;BME280;53294;47.912;13.526;2023-04-02T02:25:33;95434.19;;;8.06;70.88
66479;BME280;53294;47.912;13.526;2023-04-02T02:28:22;95439.69;;;7.68;72.28
66479;BME280;53294;47.912;13.526;2023-04-02T02:31:04;95444.56;;;7.33;72.86
66479;BME280;53294;47.912;13.526;2023-04-02T02:39:04;95443.91;;;7.55;72.47
66479;BME280;53294;47.912;13.526;2023-04-02T02:41:40;95437.91;;;7.78;71.13
66479;BME280;53294;47.912;13.526;2023-04-02T02:46:37;95439.69;;;7.82;71.37
66479;BME280;53294;47.912;13.526;2023-04-02T02:49:06;95436.34;;;8.04;70.45
66479;BME280;53294;47.912;13.526;2023-04-02T02:51:44;95439.72;;;8.24;69.87
66479;BME280;53294;47.912;13.526;2023-04-02T02:54:12;95440.41;;;7.88;70.61
66479;BME280;53294;47.912;13.526;2023-04-02T02:56:45;95444.06;;;7.92;70.71
66479;BME280;53294;47.912;13.526;2023-04-02T02:59:14;95444.66;;;8.17;70.48
66479;BME280;53294;47.912;13.526;2023-04-02T03:01:43;95441.81;;;8.13;70.13
66479;BME280;53294;47.912;13.526;2023-04-02T03:04:11;95446.69;;;8.25;69.93
66479;BME280;53294;47.912;13.526;2023-04-02T03:06:38;95439.13;;;8.27;70.26
66479;BME280;53294;47.912;13.526;2023-04-02T03:09:12;95447.03;;;8.32;69.67
66479;BME280;53294;47.912;13.526;2023-04-02T03:18:05;95447.25;;;8.63;69.24
66479;BME280;53294;47.912;13.526;2023-04-02T03:20:35;95454.69;;;8.25;69.24
66479;BME280;53294;47.912;13.526;2023-04-02T03:23:15;95455.00;;;8.09;69.75
66479;BME280;53294;47.912;13.526;2023-04-02T03:28:22;95457.56;;;8.29;69.28
66479;BME280;53294;47.912;13.526;2023-04-02T03:30:54;95454.59;;;8.16;69.00
66479;BME280;53294;47.912;13.526;2023-04-02T03:33:26;95456.38;;;8.21;68.86
66479;BME280;53294;47.912;13.526;2023-04-02T03:42:01;95464.28;;;8.12;67.93
66479;BME280;53294;47.912;13.526;2023-04-02T03:44:38;95467.13;;;7.74;68.52
66479;BME280;53294;47.912;13.526;2023-04-02T03:47:15;95456.94;;;7.90;68.35
66479;BME280;53294;47.912;13.526;2023-04-02T03:49:50;95463.84;;;7.63;67.95
66479;BME280;53294;47.912;13.526;2023-04-02T03:52:24;95464.81;;;7.67;68.62
66479;BME280;53294;47.912;13.526;2023-04-02T03:54:56;95465.06;;;7.85;68.49
66479;BME280;53294;47.912;13.526;2023-04-02T04:03:04;95473.16;;;7.80;68.25
66479;BME280;53294;47.912;13.526;2023-04-02T04:05:42;95480.09;;;7.81;68.02
66479;BME280;53294;47.912;13.526;2023-04-02T04:08:21;95487.50;;;7.70;67.83
66479;BME280;53294;47.912;13.526;2023-04-02T04:10:52;95493.88;;;7.55;67.88
66479;BME280;53294;47.912;13.526;2023-04-02T04:13:28;95490.72;;;7.53;68.24
66479;BME280;53294;47.912;13.526;2023-04-02T04:16:01;95492.13;;;7.64;67.66
66479;BME280;53294;47.912;13.526;2023-04-02T04:18:58;95499.59;;;7.48;68.30
66479;BME280;53294;47.912;13.526;2023-04-02T04:21:29;95503.63;;;7.65;68.02
66479;BME280;53294;47.912;13.526;2023-04-02T04:24:12;95508.09;;;7.69;67.62
66479;BME280;53294;47.912;13.526;2023-04-02T04:26:54;95505.59;;;7.59;67.40
66479;BME280;53294;47.912;13.526;2023-04-02T04:29:34;95516.28;;;7.59;67.34
66479;BME280;53294;47.912;13.526;2023-04-02T04:32:21;95510.84;;;7.64;67.46
66479;BME280;53294;47.912;13.526;2023-04-02T04:34:56;95521.28;;;7.47;67.54
66479;BME280;53294;47.912;13.526;2023-04-02T04:37:30;95527.16;;;7.49;67.89
66479;BME280;53294;47.912;13.526;2023-04-02T04:42:35;95530.50;;;7.54;67.50
66479;BME280;53294;47.912;13.526;2023-04-02T04:47:48;95527.25;;;7.58;67.59
66479;BME280;53294;47.912;13.526;2023-04-02T04:50:29;95529.56;;;7.64;67.45
66479;BME280;53294;47.912;13.526;2023-04-02T04:53:04;95534.94;;;7.78;67.24
66479;BME280;53294;47.912;13.526;2023-04-02T05:01:08;95548.84;;;7.61;67.27
66479;BME280;53294;47.912;13.526;2023-04-02T05:03:47;95547.78;;;7.62;67.54
66479;BME280;53294;47.912;13.526;2023-04-02T05:06:32;95542.63;;;7.66;67.10
66479;BME280;53294;47.912;13.526;2023-04-02T05:09:10;95553.94;;;7.77;67.25
66479;BME280;53294;47.912;13.526;2023-04-02T05:11:49;95551.38;;;7.71;66.63
66479;BME280;53294;47.912;13.526;2023-04-02T05:17:18;95561.56;;;7.69;67.86
66479;BME280;53294;47.912;13.526;2023-04-02T05:20:07;95567.25;;;7.82;67.39
66479;BME280;53294;47.912;13.526;2023-04-02T05:22:47;95570.84;;;7.91;67.14
66479;BME280;53294;47.912;13.526;2023-04-02T05:25:26;95573.78;;;7.76;67.56
66479;BME280;53294;47.912;13.526;2023-04-02T05:28:08;95580.44;;;7.40;69.34
66479;BME280;53294;47.912;13.526;2023-04-02T05:30:46;95585.94;;;7.49;70.35
66479;BME280;53294;47.912;13.526;2023-04-02T05:33:26;95591.34;;;7.44;71.22
66479;BME280;53294;47.912;13.526;2023-04-02T05:36:00;95591.78;;;7.51;71.10
66479;BME280;53294;47.912;13.526;2023-04-02T05:38:31;95593.88;;;7.54;70.88
66479;BME280;53294;47.912;13.526;2023-04-02T05:43:50;95600.94;;;7.45;71.81
66479;BME280;53294;47.912;13.526;2023-04-02T05:46:24;95604.13;;;7.47;71.87
66479;BME280;53294;47.912;13.526;2023-04-02T05:48:57;95602.47;;;7.51;71.91
66479;BME280;53294;47.912;13.526;2023-04-02T05:51:35;95604.56;;;7.54;72.03
66479;BME280;53294;47.912;13.526;2023-04-02T05:54:36;95607.91;;;7.46;72.32
66479;BME280;53294;47.912;13.526;2023-04-02T05:57:05;95611.34;;;7.65;71.62
66479;BME280;53294;47.912;13.526;2023-04-02T05:59:42;95610.03;;;7.82;71.81
66479;BME280;53294;47.912;13.526;2023-04-02T06:02:33;95616.41;;;7.48;73.22
66479;BME280;53294;47.912;13.526;2023-04-02T06:05:11;95618.34;;;7.23;74.69
66479;BME280;53294;47.912;13.526;2023-04-02T06:07:45;95622.47;;;7.34;74.20
66479;BME280;53294;47.912;13.526;2023-04-02T06:10:20;95623.28;;;7.35;73.97
66479;BME280;53294;47.912;13.526;2023-04-02T06:15:21;95626.22;;;7.33;74.57
66479;BME280;53294;47.912;13.526;2023-04-02T06:20:30;95632.28;;;7.20;74.78
66479;BME280;53294;47.912;13.526;2023-04-02T06:23:10;95627.63;;;7.07;75.20
66479;BME280;53294;47.912;13.526;2023-04-02T06:28:13;95637.41;;;7.16;74.84
66479;BME280;53294;47.912;13.526;2023-04-02T06:30:42;95641.88;;;7.21;75.54
66479;BME280;53294;47.912;13.526;2023-04-02T06:33:11;95639.53;;;7.14;74.38
66479;BME280;53294;47.912;13.526;2023-04-02T06:35:41;95649.31;;;7.24;74.86
66479;BME280;53294;47.912;13.526;2023-04-02T06:38:20;95640.00;;;7.41;73.51
66479;BME280;53294;47.912;13.526;2023-04-02T06:40:59;95644.41;;;7.31;73.83
66479;BME280;53294;47.912;13.526;2023-04-02T06:43:31;95650.69;;;7.22;75.05
66479;BME280;53294;47.912;13.526;2023-04-02T06:46:06;95651.13;;;7.29;74.46
66479;BME280;53294;47.912;13.526;2023-04-02T06:48:36;95659.28;;;7.57;73.03
66479;BME280;53294;47.912;13.526;2023-04-02T06:51:06;95655.47;;;7.63;72.71
66479;BME280;53294;47.912;13.526;2023-04-02T06:53:36;95658.72;;;7.41;73.38
66479;BME280;53294;47.912;13.526;2023-04-02T06:56:22;95661.56;;;7.49;73.31
66479;BME280;53294;47.912;13.526;2023-04-02T06:58:50;95673.28;;;7.29;74.62
66479;BME280;53294;47.912;13.526;2023-04-02T07:01:21;95675.63;;;7.55;73.48
66479;BME280;53294;47.912;13.526;2023-04-02T07:03:49;95684.66;;;7.59;72.96
66479;BME280;53294;47.912;13.526;2023-04-02T07:06:18;95677.50;;;7.73;72.54
66479;BME280;53294;47.912;13.526;2023-04-02T07:08:46;95682.34;;;7.52;74.05
66479;BME280;53294;47.912;13.526;2023-04-02T07:11:17;95682.47;;;7.42;74.20
66479;BME280;53294;47.912;13.526;2023-04-02T07:13:47;95679.41;;;7.54;74.20
66479;BME280;53294;47.912;13.526;2023-04-02T07:16:16;95680.53;;;7.48;74.64
66479;BME280;53294;47.912;13.526;2023-04-02T07:18:45;95691.13;;;7.34;76.01
66479;BME280;53294;47.912;13.526;2023-04-02T07:21:12;95684.16;;;7.38;76.51
66479;BME280;53294;47.912;13.526;2023-04-02T07:23:39;95694.94;;;7.28;76.79
66479;BME280;53294;47.912;13.526;2023-04-02T07:26:07;95684.94;;;7.58;75.89
66479;BME280;53294;47.912;13.526;2023-04-02T07:28:34;95699.34;;;7.81;74.97
66479;BME280;53294;47.912;13.526;2023-04-02T07:31:01;95692.19;;;7.76;75.57
66479;BME280;53294;47.912;13.526;2023-04-02T07:33:28;95693.56;;;7.73;75.74
66479;BME280;53294;47.912;13.526;2023-04-02T07:35:57;95702.88;;;7.57;76.09
66479;BME280;53294;47.912;13.526;2023-04-02T07:38:24;95706.19;;;7.49;77.21
66479;BME280;53294;47.912;13.526;2023-04-02T07:40:51;95711.72;;;7.33;77.24
66479;BME280;53294;47.912;13.526;2023-04-02T07:43:18;95705.81;;;7.36;76.32
66479;BME280;53294;47.912;13.526;2023-04-02T07:45:44;95712.16;;;7.41;76.88
66479;BME280;53294;47.912;13.526;2023-04-02T07:48:12;95723.97;;;7.34;76.45
66479;BME280;53294;47.912;13.526;2023-04-02T07:50:39;95724.34;;;7.52;76.42
66479;BME280;53294;47.912;13.526;2023-04-02T07:53:06;95721.03;;;7.36;76.56
66479;BME280;53294;47.912;13.526;2023-04-02T07:55:34;95727.06;;;7.47;76.51
66479;BME280;53294;47.912;13.526;2023-04-02T07:58:01;95728.22;;;7.60;76.07
66479;BME280;53294;47.912;13.526;2023-04-02T08:00:29;95733.53;;;7.41;76.13
66479;BME280;53294;47.912;13.526;2023-04-02T08:02:55;95739.63;;;7.22;77.09
66479;BME280;53294;47.912;13.526;2023-04-02T08:05:22;95731.59;;;7.22;77.10
66479;BME280;53294;47.912;13.526;2023-04-02T08:07:55;95734.25;;;7.27;77.47
66479;BME280;53294;47.912;13.526;2023-04-02T08:10:22;95742.84;;;7.19;77.30
66479;BME280;53294;47.912;13.526;2023-04-02T08:12:49;95752.00;;;7.13;77.62
66479;BME280;53294;47.912;13.526;2023-04-02T08:15:16;95751.75;;;7.39;76.59
66479;BME280;53294;47.912;13.526;2023-04-02T08:17:45;95748.50;;;7.42;76.25
66479;BME280;53294;47.912;13.526;2023-04-02T08:20:16;95749.56;;;7.41;76.98
66479;BME280;53294;47.912;13.526;2023-04-02T08:22:47;95756.06;;;7.34;76.83
66479;BME280;53294;47.912;13.526;2023-04-02T08:25:15;95760.16;;;7.51;76.63
66479;BME280;53294;47.912;13.526;2023-04-02T08:27:41;95765.72;;;7.54;76.17
66479;BME280;53294;47.912;13.526;2023-04-02T08:30:10;95761.84;;;7.42;76.87
66479;BME280;53294;47.912;13.526;2023-04-02T08:32:38;95770.84;;;7.51;76.61
66479;BME280;53294;47.912;13.526;2023-04-02T08:35:08;95773.25;;;7.71;75.50
66479;BME280;53294;47.912;13.526;2023-04-02T08:37:35;95767.53;;;7.59;75.39
66479;BME280;53294;47.912;13.526;2023-04-02T08:40:03;95768.22;;;7.46;76.74
66479;BME280;53294;47.912;13.526;2023-04-02T08:47:53;95774.78;;;7.53;77.07
66479;BME280;53294;47.912;13.526;2023-04-02T08:50:29;95785.97;;;7.36;77.67
66479;BME280;53294;47.912;13.526;2023-04-02T08:52:59;95785.72;;;7.57;76.94
66479;BME280;53294;47.912;13.526;2023-04-02T09:00:48;95779.84;;;7.55;77.65
66479;BME280;53294;47.912;13.526;2023-04-02T09:05:49;95783.31;;;7.80;75.80
66479;BME280;53294;47.912;13.526;2023-04-02T09:08:20;95786.44;;;7.87;76.55
66479;BME280;53294;47.912;13.526;2023-04-02T09:10:56;95782.44;;;7.65;77.04
66479;BME280;53294;47.912;13.526;2023-04-02T09:13:27;95786.28;;;7.78;76.63
66479;BME280;53294;47.912;13.526;2023-04-02T09:16:12;95783.38;;;7.75;75.26
66479;BME280;53294;47.912;13.526;2023-04-02T09:18:40;95790.13;;;7.91;76.08
66479;BME280;53294;47.912;13.526;2023-04-02T09:23:53;95792.16;;;7.99;75.88
66479;BME280;53294;47.912;13.526;2023-04-02T09:26:25;95794.47;;;7.87;76.10
66479;BME280;53294;47.912;13.526;2023-04-02T09:29:22;95795.91;;;7.98;76.13
66479;BME280;53294;47.912;13.526;2023-04-02T09:32:29;95794.06;;;8.18;75.18
66479;BME280;53294;47.912;13.526;2023-04-02T09:43:11;95796.28;;;8.11;75.52
66479;BME280;53294;47.912;13.526;2023-04-02T09:45:40;95796.16;;;8.21;75.78
66479;BME280;53294;47.912;13.526;2023-04-02T09:48:22;95802.56;;;8.44;75.11
66479;BME280;53294;47.912;13.526;2023-04-02T09:51:23;95798.78;;;8.45;75.31
66479;BME280;53294;47.912;13.526;2023-04-02T09:56:32;95796.22;;;8.35;73.72
66479;BME280;53294;47.912;13.526;2023-04-02T10:02:00;95798.53;;;8.41;74.01
66479;BME280;53294;47.912;13.526;2023-04-02T10:04:40;95804.78;;;8.56;72.72
66479;BME280;53294;47.912;13.526;2023-04-02T10:07:51;95813.59;;;8.75;72.92
66479;BME280;53294;47.912;13.526;2023-04-02T10:10:38;95807.22;;;8.71;71.97
66479;BME280;53294;47.912;13.526;2023-04-02T10:13:22;95809.00;;;8.76;73.12
66479;BME280;53294;47.912;13.526;2023-04-02T10:16:07;95810.53;;;8.82;70.66
66479;BME280;53294;47.912;13.526;2023-04-02T10:18:45;95818.22;;;8.89;72.27
66479;BME280;53294;47.912;13.526;2023-04-02T10:21:25;95812.22;;;8.78;71.01
66479;BME280;53294;47.912;13.526;2023-04-02T10:23:53;95811.28;;;8.50;72.06
66479;BME280;53294;47.912;13.526;2023-04-02T10:31:55;95817.00;;;8.81;72.10
66479;BME280;53294;47.912;13.526;2023-04-02T10:35:06;95824.06;;;8.91;72.42
66479;BME280;53294;47.912;13.526;2023-04-02T10:40:20;95820.09;;;9.02;72.31
66479;BME280;53294;47.912;13.526;2023-04-02T10:50:59;95828.13;;;9.35;72.42
66479;BME280;53294;47.912;13.526;2023-04-02T10:56:24;95833.25;;;9.18;72.06
66479;BME280;53294;47.912;13.526;2023-04-02T11:01:27;95842.81;;;8.91;73.32
66479;BME280;53294;47.912;13.526;2023-04-02T11:06:26;95848.25;;;9.19;73.29
66479;BME280;53294;47.912;13.526;2023-04-02T11:08:59;95854.50;;;9.14;73.70
66479;BME280;53294;47.912;13.526;2023-04-02T11:11:33;95850.00;;;9.09;74.35
66479;BME280;53294;47.912;13.526;2023-04-02T11:14:27;95851.22;;;9.17;74.39
66479;BME280;53294;47.912;13.526;2023-04-02T11:16:56;95855.13;;;9.25;74.35
66479;BME280;53294;47.912;13.526;2023-04-02T11:19:27;95849.84;;;9.33;74.39
66479;BME280;53294;47.912;13.526;2023-04-02T11:21:59;95860.97;;;9.27;74.51
66479;BME280;53294;47.912;13.526;2023-04-02T11:37:40;95866.41;;;9.82;73.30
66479;BME280;53294;47.912;13.526;2023-04-02T11:48:31;95869.53;;;9.43;74.01
66479;BME280;53294;47.912;13.526;2023-04-02T11:50:57;95880.75;;;9.31;74.29
66479;BME280;53294;47.912;13.526;2023-04-02T11:53:32;95876.22;;;9.12;74.76
66479;BME280;53294;47.912;13.526;2023-04-02T11:59:15;95890.59;;;9.03;75.57
66479;BME280;53294;47.912;13.526;2023-04-02T12:10:21;95894.34;;;9.34;74.20
66479;BME280;53294;47.912;13.526;2023-04-02T12:12:49;95891.78;;;9.43;73.94
66479;BME280;53294;47.912;13.526;2023-04-02T12:17:51;95903.91;;;9.55;73.32
66479;BME280;53294;47.912;13.526;2023-04-02T12:20:22;95899.78;;;9.76;72.77
66479;BME280;53294;47.912;13.526;2023-04-02T12:22:53;95905.75;;;9.73;72.95
66479;BME280;53294;47.912;13.526;2023-04-02T12:25:22;95906.00;;;9.58;73.21
66479;BME280;53294;47.912;13.526;2023-04-02T12:30:37;95914.91;;;9.39;73.15
66479;BME280;53294;47.912;13.526;2023-04-02T12:35:48;95914.22;;;9.47;73.48
66479;BME280;53294;47.912;13.526;2023-04-02T12:38:25;95917.44;;;9.49;73.49
66479;BME280;53294;47.912;13.526;2023-04-02T12:43:30;95913.16;;;9.15;73.19
66479;BME280;53294;47.912;13.526;2023-04-02T12:46:00;95925.91;;;8.67;74.39
66479;BME280;53294;47.912;13.526;2023-04-02T12:48:28;95920.84;;;8.65;74.58
66479;BME280;53294;47.912;13.526;2023-04-02T12:50:56;95926.63;;;8.72;74.34
66479;BME280;53294;47.912;13.526;2023-04-02T12:53:38;95929.38;;;8.67;73.67
66479;BME280;53294;47.912;13.526;2023-04-02T12:56:06;95933.34;;;8.70;73.78
66479;BME280;53294;47.912;13.526;2023-04-02T12:58:41;95937.13;;;8.88;73.43
66479;BME280;53294;47.912;13.526;2023-04-02T13:01:16;95931.97;;;8.91;73.21
66479;BME280;53294;47.912;13.526;2023-04-02T13:04:05;95934.31;;;8.98;73.14
66479;BME280;53294;47.912;13.526;2023-04-02T13:06:35;95934.22;;;9.03;72.96
66479;BME280;53294;47.912;13.526;2023-04-02T13:09:05;95938.66;;;8.94;73.02
66479;BME280;53294;47.912;13.526;2023-04-02T13:11:37;95946.44;;;8.71;73.41
66479;BME280;53294;47.912;13.526;2023-04-02T13:14:16;95935.97;;;8.75;73.68
66479;BME280;53294;47.912;13.526;2023-04-02T13:16:43;95937.22;;;8.83;72.43
66479;BME280;53294;47.912;13.526;2023-04-02T13:21:37;95936.41;;;8.63;73.25
66479;BME280;53294;47.912;13.526;2023-04-02T13:24:04;95943.97;;;8.56;73.05
66479;BME280;53294;47.912;13.526;2023-04-02T13:26:30;95945.97;;;8.69;72.54
66479;BME280;53294;47.912;13.526;2023-04-02T13:29:03;95943.00;;;8.71;72.66
66479;BME280;53294;47.912;13.526;2023-04-02T13:31:35;95940.31;;;8.90;71.62
66479;BME280;53294;47.912;13.526;2023-04-02T13:34:02;95940.09;;;9.05;71.19
66479;BME280;53294;47.912;13.526;2023-04-02T13:36:29;95944.44;;;9.01;70.92
66479;BME280;53294;47.912;13.526;2023-04-02T13:38:56;95946.59;;;8.99;71.17
66479;BME280;53294;47.912;13.526;2023-04-02T13:41:27;95943.94;;;8.80;71.74
66479;BME280;53294;47.912;13.526;2023-04-02T13:43:57;95949.34;;;8.56;72.59
66479;BME280;53294;47.912;13.526;2023-04-02T13:46:28;95941.25;;;8.61;72.55
66479;BME280;53294;47.912;13.526;2023-04-02T13:48:56;95943.59;;;8.43;73.29
66479;BME280;53294;47.912;13.526;2023-04-02T13:51:30;95946.88;;;8.35;73.67
66479;BME280;53294;47.912;13.526;2023-04-02T13:53:57;95948.66;;;8.21;74.74
66479;BME280;53294;47.912;13.526;2023-04-02T13:56:24;95950.72;;;8.29;74.93
66479;BME280;53294;47.912;13.526;2023-04-02T13:58:50;95946.38;;;8.09;76.05
66479;BME280;53294;47.912;13.526;2023-04-02T14:01:19;95956.19;;;8.19;76.04
66479;BME280;53294;47.912;13.526;2023-04-02T14:03:46;95958.47;;;8.06;76.68
66479;BME280;53294;47.912;13.526;2023-04-02T14:06:25;95963.69;;;7.93;76.96
66479;BME280;53294;47.912;13.526;2023-04-02T14:09:02;95959.25;;;8.07;77.00
66479;BME280;53294;47.912;13.526;2023-04-02T14:18:00;95960.28;;;8.11;76.75
66479;BME280;53294;47.912;13.526;2023-04-02T14:28:18;95962.84;;;9.08;73.30
66479;BME280;53294;47.912;13.526;2023-04-02T14:42:05;95973.63;;;9.22;72.88
66479;BME280;53294;47.912;13.526;2023-04-02T14:44:40;95977.28;;;9.45;72.23
66479;BME280;53294;47.912;13.526;2023-04-02T14:47:23;95973.84;;;9.58;71.91
66479;BME280;53294;47.912;13.526;2023-04-02T14:49:55;95974.66;;;9.59;71.74
66479;BME280;53294;47.912;13.526;2023-04-02T14:52:24;95975.28;;;9.83;71.37
66479;BME280;53294;47.912;13.526;2023-04-02T14:55:00;95979.47;;;9.76;71.39
66479;BME280;53294;47.912;13.526;2023-04-02T15:00:28;95978.88;;;9.93;70.64
66479;BME280;53294;47.912;13.526;2023-04-02T15:03:19;95982.75;;;9.86;71.30
66479;BME280;53294;47.912;13.526;2023-04-02T15:05:49;95982.56;;;9.97;70.76
66479;BME280;53294;47.912;13.526;2023-04-02T15:08:21;95990.41;;;9.79;71.09
66479;BME280;53294;47.912;13.526;2023-04-02T15:10:57;95991.06;;;9.71;71.36
66479;BME280;53294;47.912;13.526;2023-04-02T15:13:40;95992.59;;;9.77;70.96
66479;BME280;53294;47.912;13.526;2023-04-02T15:16:13;95990.56;;;9.69;71.56
66479;BME280;53294;47.912;13.526;2023-04-02T15:18:41;95991.06;;;9.71;71.42
66479;BME280;53294;47.912;13.526;2023-04-02T15:24:16;96001.88;;;9.66;71.36
66479;BME280;53294;47.912;13.526;2023-04-02T15:29:43;96003.47;;;9.67;72.05
66479;BME280;53294;47.912;13.526;2023-04-02T15:32:21;96006.84;;;9.59;71.98
66479;BME280;53294;47.912;13.526;2023-04-02T15:40:28;96008.50;;;9.87;71.46
66479;BME280;53294;47.912;13.526;2023-04-02T15:51:48;96009.50;;;9.59;71.13
66479;BME280;53294;47.912;13.526;2023-04-02T15:53:56;96019.22;;;9.16;73.11
66479;BME280;53294;47.912;13.526;2023-04-02T16:02:08;96021.06;;;9.73;71.48
66479;BME280;53294;47.912;13.526;2023-04-02T16:12:14;96037.28;;;9.82;70.85
66479;BME280;53294;47.912;13.526;2023-04-02T16:14:44;96052.53;;;9.67;71.28
66479;BME280;53294;47.912;13.526;2023-04-02T16:17:34;96065.09;;;9.34;72.41
66479;BME280;53294;47.912;13.526;2023-04-02T16:20:15;96063.53;;;8.90;73.71
66479;BME280;53294;47.912;13.526;2023-04-02T16:22:47;96069.31;;;8.54;74.26
66479;BME280;53294;47.912;13.526;2023-04-02T16:25:29;96077.19;;;8.11;75.66
66479;BME280;53294;47.912;13.526;2023-04-02T16:31:18;96090.09;;;7.29;78.99
66479;BME280;53294;47.912;13.526;2023-04-02T16:39:54;96113.34;;;7.24;78.26
66479;BME280;53294;47.912;13.526;2023-04-02T16:42:36;96110.91;;;7.32;77.73
66479;BME280;53294;47.912;13.526;2023-04-02T16:45:28;96119.44;;;7.34;76.40
66479;BME280;53294;47.912;13.526;2023-04-02T16:48:26;96133.41;;;7.16;75.40
66479;BME280;53294;47.912;13.526;2023-04-02T16:54:01;96144.09;;;7.21;75.97
66479;BME280;53294;47.912;13.526;2023-04-02T16:56:51;96152.16;;;7.11;75.79
66479;BME280;53294;47.912;13.526;2023-04-02T17:07:47;96166.53;;;7.20;74.75
66479;BME280;53294;47.912;13.526;2023-04-02T17:10:44;96169.19;;;7.30;74.86
66479;BME280;53294;47.912;13.526;2023-04-02T17:13:27;96177.19;;;7.30;75.01
66479;BME280;53294;47.912;13.526;2023-04-02T17:16:27;96174.56;;;7.20;75.55
66479;BME280;53294;47.912;13.526;2023-04-02T17:18:56;96179.09;;;7.25;75.80
66479;BME280;53294;47.912;13.526;2023-04-02T17:21:26;96187.41;;;7.18;76.27
66479;BME280;53294;47.912;13.526;2023-04-02T17:24:01;96196.81;;;6.95;76.98
66479;BME280;53294;47.912;13.526;2023-04-02T17:26:33;96195.50;;;6.87;77.42
66479;BME280;53294;47.912;13.526;2023-04-02T17:29:04;96201.41;;;6.69;77.82
66479;BME280;53294;47.912;13.526;2023-04-02T17:31:32;96207.84;;;6.57;77.64
66479;BME280;53294;47.912;13.526;2023-04-02T17:34:20;96212.09;;;6.58;77.75
66479;BME280;53294;47.912;13.526;2023-04-02T17:39:43;96213.72;;;6.23;80.22
66479;BME280;53294;47.912;13.526;2023-04-02T17:45:04;96219.56;;;6.15;79.69
66479;BME280;53294;47.912;13.526;2023-04-02T17:50:41;96224.38;;;6.13;79.84
66479;BME280;53294;47.912;13.526;2023-04-02T17:56:35;96245.16;;;6.16;79.68
66479;BME280;53294;47.912;13.526;2023-04-02T18:04:39;96254.50;;;6.08;78.74
66479;BME280;53294;47.912;13.526;2023-04-02T18:08:08;96263.81;;;6.01;78.21
66479;BME280;53294;47.912;13.526;2023-04-02T18:13:07;96280.81;;;5.84;78.17
66479;BME280;53294;47.912;13.526;2023-04-02T18:18:52;96283.94;;;5.66;78.18
66479;BME280;53294;47.912;13.526;2023-04-02T18:36:39;96325.16;;;5.43;78.80
66479;BME280;53294;47.912;13.526;2023-04-02T18:39:48;96320.81;;;5.31;78.93
66479;BME280;53294;47.912;13.526;2023-04-02T18:42:41;96328.97;;;5.14;79.40
66479;BME280;53294;47.912;13.526;2023-04-02T18:45:27;96334.63;;;5.28;78.55
66479;BME280;53294;47.912;13.526;2023-04-02T18:50:40;96346.59;;;5.20;78.80